Time;durP1;ratioP1;P1;durP2;ratioP2;P2;SDS_P1;SDS_P2;PMS_P1;PMS_P2;Temp;Humidity;BMP_temperature;BMP_pressure;BME280_temperature;BME280_humidity;BME280_pressure;Samples;Min_cycle;Max_cycle;Signal;HPM_P1;HPM_P2
2022/12/19 00:01:17;;;;;;;37.83;17.10;;;;;;;-143.48;95.98;118439.88;5056023;28;20031;-69
2022/12/19 00:03:48;;;;;;;42.50;19.55;;;;;;;-143.48;96.14;118439.88;5038152;28;20040;-69
2022/12/19 00:06:15;;;;;;;34.05;14.70;;;;;;;-143.48;96.12;118439.88;5056013;28;20620;-70
2022/12/19 00:08:42;;;;;;;43.33;18.60;;;;;;;-143.48;96.26;118439.88;5055596;28;20037;-70
2022/12/19 00:11:09;;;;;;;45.15;18.83;;;;;;;-143.48;96.24;118439.88;5055750;28;20029;-70
2022/12/19 00:13:35;;;;;;;43.67;19.15;;;;;;;-143.48;96.12;118439.88;5055905;28;20025;-69
2022/12/19 00:16:05;;;;;;;40.95;17.95;;;;;;;-143.48;96.39;118439.88;5055885;28;20090;-69
2022/12/19 00:18:31;;;;;;;46.05;19.95;;;;;;;-143.48;96.67;118439.88;5056077;28;20056;-70
2022/12/19 00:20:59;;;;;;;42.67;18.98;;;;;;;-143.48;96.70;118439.88;5055744;28;20032;-70
2022/12/19 00:23:25;;;;;;;34.42;16.70;;;;;;;-143.48;96.41;118439.88;5055665;28;20071;-70
2022/12/19 00:25:50;;;;;;;41.83;18.55;;;;;;;-143.48;96.50;118439.88;5055740;28;20020;-69
2022/12/19 00:28:15;;;;;;;40.95;18.08;;;;;;;-143.48;96.63;118439.88;5037429;28;20020;-70
2022/12/19 00:30:41;;;;;;;36.83;16.60;;;;;;;-143.48;96.67;118439.88;5055572;28;20029;-69
2022/12/19 00:33:06;;;;;;;35.95;17.65;;;;;;;-143.48;96.73;118439.88;5055237;28;20021;-69
2022/12/19 00:35:31;;;;;;;40.58;17.55;;;;;;;-143.48;97.06;118439.88;5055678;28;20029;-70
2022/12/19 00:37:57;;;;;;;42.53;19.33;;;;;;;-143.48;96.85;118439.88;5055473;28;20035;-70
2022/12/19 00:40:22;;;;;;;37.75;17.40;;;;;;;-143.48;96.99;118439.88;5055483;28;20020;-70
2022/12/19 00:42:47;;;;;;;37.90;17.48;;;;;;;-143.48;97.19;118439.88;5055474;28;20029;-70
2022/12/19 00:45:12;;;;;;;35.20;16.95;;;;;;;-143.48;97.33;118439.88;5055350;28;20388;-70
2022/12/19 00:47:38;;;;;;;38.40;18.38;;;;;;;-143.48;97.30;118439.88;5055274;28;20078;-70
2022/12/19 00:50:03;;;;;;;36.17;17.65;;;;;;;-143.48;97.52;118439.88;5054233;28;20056;-70
2022/12/19 00:52:29;;;;;;;40.75;18.33;;;;;;;-143.48;97.21;118439.88;5036992;28;20548;-70
2022/12/19 00:54:54;;;;;;;37.20;17.48;;;;;;;-143.48;97.44;118439.88;5055182;28;20115;-70
2022/12/19 00:57:19;;;;;;;37.60;17.83;;;;;;;-143.48;97.27;118439.88;5055199;28;20024;-70
2022/12/19 00:59:45;;;;;;;27.23;13.80;;;;;;;-143.48;97.39;118439.88;5055071;28;20464;-70
2022/12/19 01:02:10;;;;;;;34.05;15.95;;;;;;;-143.48;97.70;118439.88;5054937;28;20021;-70
2022/12/19 01:04:35;;;;;;;34.00;16.45;;;;;;;-143.48;97.69;118439.88;5054983;28;20082;-70
2022/12/19 01:07:01;;;;;;;33.03;16.50;;;;;;;-143.48;97.45;118439.88;5054760;28;20488;-70
2022/12/19 01:09:26;;;;;;;32.60;15.60;;;;;;;-143.48;97.42;118439.88;5054913;28;20028;-70
2022/12/19 01:14:35;;;;;;;32.58;16.30;;;;;;;-143.48;97.35;118439.88;5054967;28;20062;-70
2022/12/19 01:17:00;;;;;;;29.63;13.90;;;;;;;-143.48;97.78;118439.88;5036989;28;20017;-70
2022/12/19 01:19:26;;;;;;;35.38;16.98;;;;;;;-143.48;97.74;118439.88;5054633;28;20021;-70
2022/12/19 01:21:51;;;;;;;35.72;16.75;;;;;;;-143.48;97.55;118439.88;5054806;28;20037;-70
2022/12/19 01:24:17;;;;;;;33.13;16.35;;;;;;;-143.48;97.47;118439.88;5054483;28;20148;-70
2022/12/19 01:26:42;;;;;;;33.78;17.02;;;;;;;-143.48;97.69;118439.88;5054680;28;20025;-70
2022/12/19 01:29:07;;;;;;;34.55;17.02;;;;;;;-143.48;97.94;118439.88;5036638;28;20028;-70
2022/12/19 01:31:33;;;;;;;33.33;16.65;;;;;;;-143.48;98.07;118439.88;5054420;28;20024;-69
2022/12/19 01:33:59;;;;;;;29.15;14.48;;;;;;;-143.48;98.40;118439.88;5054357;28;20108;-70
2022/12/19 01:36:24;;;;;;;37.50;17.40;;;;;;;-143.48;98.26;118439.88;5054342;28;20426;-70
2022/12/19 01:38:50;;;;;;;37.97;18.48;;;;;;;-143.48;98.05;118439.88;5054348;28;20140;-70
2022/12/19 01:41:15;;;;;;;37.72;17.90;;;;;;;-143.48;98.34;118439.88;5054293;28;20029;-70
2022/12/19 01:44:02;;;;;;;40.80;18.38;;;;;;;-143.48;98.53;118439.88;5054247;28;20392;-70
2022/12/19 01:46:35;;;;;;;35.88;17.75;;;;;;;-143.48;98.64;118439.88;5052883;28;20033;-70
2022/12/19 01:49:03;;;;;;;39.67;17.55;;;;;;;-143.48;98.52;118439.88;5054039;28;20048;-70
2022/12/19 01:51:35;;;;;;;35.88;17.75;;;;;;;-143.48;98.48;118439.88;5054075;28;20028;-70
2022/12/19 01:54:04;;;;;;;37.67;18.30;;;;;;;-143.48;98.52;118439.88;5036194;28;20032;-70
2022/12/19 01:56:37;;;;;;;40.83;19.08;;;;;;;-143.48;98.45;118439.88;5053915;28;20588;-70
2022/12/19 01:59:10;;;;;;;37.13;17.52;;;;;;;-143.48;98.22;118439.88;5053878;28;20110;-70
2022/12/19 02:01:37;;;;;;;;;;;;;;;-143.48;98.40;118439.88;5053685;28;20224;-70
2022/12/19 02:04:03;;;;;;;32.15;15.48;;;;;;;-143.48;98.94;118439.88;5053763;28;19995;-70
2022/12/19 02:06:30;;;;;;;43.33;17.95;;;;;;;-143.48;98.68;118439.88;5053638;28;20108;-70
2022/12/19 02:08:56;;;;;;;35.92;15.48;;;;;;;-143.48;98.68;118439.88;5053871;28;20021;-70
2022/12/19 02:11:21;;;;;;;49.72;20.80;;;;;;;-143.48;98.98;118439.88;5054038;28;20033;-70
2022/12/19 02:13:47;;;;;;;39.17;17.10;;;;;;;-143.48;98.87;118439.88;5035839;28;20140;-70
2022/12/19 02:16:28;;;;;;;35.58;17.33;;;;;;;-143.48;98.88;118439.88;5053632;28;20017;-70
2022/12/19 02:18:59;;;;;;;43.90;18.50;;;;;;;-143.48;99.01;118439.88;5053652;28;20025;-70
2022/12/19 02:21:36;;;;;;;42.63;18.95;;;;;;;-143.48;99.07;118439.88;5053574;28;20024;-70
2022/12/19 02:24:37;;;;;;;46.47;16.83;;;;;;;-143.48;99.17;118439.88;5053349;28;20053;-70
2022/12/19 02:27:21;;;;;;;45.97;19.70;;;;;;;-143.48;99.37;118439.88;5020068;28;20112;-70
2022/12/19 02:30:14;;;;;;;43.85;19.45;;;;;;;-143.48;99.07;118439.88;5035479;28;20024;-70
2022/12/19 02:32:45;;;;;;;44.80;18.73;;;;;;;-143.48;99.22;118439.88;5053555;28;20053;-71
2022/12/19 02:35:28;;;;;;;41.50;15.57;;;;;;;-143.48;98.99;118439.88;5053403;28;20365;-69
2022/12/19 02:37:53;;;;;;;38.47;17.80;;;;;;;-143.48;98.94;118439.88;5053290;28;20025;-69
2022/12/19 02:40:33;;;;;;;42.17;18.73;;;;;;;-143.48;99.12;118439.88;5053227;28;20052;-70
2022/12/19 02:43:01;;;;;;;38.00;17.23;;;;;;;-143.48;99.19;118439.88;5053192;28;20040;-70
2022/12/19 02:45:30;;;;;;;32.60;15.55;;;;;;;-143.48;99.09;118439.88;5053063;28;20039;-70
2022/12/19 02:47:59;;;;;;;39.50;15.52;;;;;;;-143.48;99.17;118439.88;5053156;28;20029;-70
2022/12/19 02:50:24;;;;;;;41.08;17.35;;;;;;;-143.48;99.13;118439.88;5053113;28;20037;-69
2022/12/19 02:52:49;;;;;;;35.15;16.40;;;;;;;-143.48;98.83;118439.88;5053123;28;20048;-70
2022/12/19 02:55:20;;;;;;;39.10;16.83;;;;;;;-143.48;98.96;118439.88;5053250;28;20021;-72
2022/12/19 02:58:11;;;;;;;33.88;15.10;;;;;;;-143.48;98.73;118439.88;5053300;28;20025;-69
2022/12/19 03:00:53;;;;;;;35.88;15.13;;;;;;;-143.48;98.91;118439.88;5053072;28;20547;-68
2022/12/19 03:03:58;;;;;;;31.30;14.33;;;;;;;-143.48;99.01;118439.88;5052986;28;20536;-70
2022/12/19 03:06:47;;;;;;;28.20;13.65;;;;;;;-143.48;99.11;118439.88;5052805;28;20770;-70
2022/12/19 03:09:36;;;;;;;29.60;14.20;;;;;;;-143.48;99.17;118439.88;5052908;28;20105;-68
2022/12/19 03:12:08;;;;;;;28.42;12.63;;;;;;;-143.48;99.81;118439.88;5052892;28;20527;-70
2022/12/19 03:14:36;;;;;;;37.47;15.80;;;;;;;-143.48;99.96;118439.88;5055867;28;20028;-70
2022/12/19 03:17:03;;;;;;;30.95;13.80;;;;;;;-143.48;100.00;118439.88;5057011;28;20504;-70
2022/12/19 03:19:29;;;;;;;32.00;14.70;;;;;;;-143.48;100.00;118439.88;5056942;28;20028;-70
2022/12/19 03:21:55;;;;;;;31.80;15.00;;;;;;;-143.48;100.00;118439.88;5056997;28;20029;-70
2022/12/19 03:24:20;;;;;;;29.85;14.55;;;;;;;-143.48;99.81;118439.88;5056702;28;20037;-71
2022/12/19 03:26:53;;;;;;;31.73;15.82;;;;;;;-143.48;99.97;118439.88;5056767;28;20025;-71
2022/12/19 03:29:35;;;;;;;30.98;14.05;;;;;;;-143.48;99.86;118439.88;5056879;28;20033;-70
2022/12/19 03:32:04;;;;;;;32.05;13.85;;;;;;;-143.48;99.41;118439.88;5056890;28;20493;-70
2022/12/19 03:34:49;;;;;;;30.80;13.52;;;;;;;-143.48;99.35;118439.88;5057057;28;20096;-70
2022/12/19 03:37:19;;;;;;;22.80;11.95;;;;;;;-143.48;99.58;118439.88;5055966;28;20036;-70
2022/12/19 03:39:48;;;;;;;27.88;12.73;;;;;;;-143.48;99.80;118439.88;5056776;28;20060;-70
2022/12/19 03:45:04;;;;;;;33.65;14.10;;;;;;;-143.48;99.72;118439.88;5056606;28;20155;-70
2022/12/19 03:47:34;;;;;;;27.80;13.45;;;;;;;-143.48;100.00;118439.88;5056860;28;20082;-70
2022/12/19 03:50:00;;;;;;;28.40;12.23;;;;;;;-143.48;99.89;118439.88;5058161;28;20043;-70
2022/12/19 03:52:29;;;;;;;28.23;11.90;;;;;;;-143.48;100.00;118439.88;5057154;28;20468;-70
2022/12/19 03:55:20;;;;;;;29.48;12.77;;;;;;;-143.48;100.00;118439.88;5057254;28;20047;-69
2022/12/19 03:57:49;;;;;;;24.30;11.93;;;;;;;-143.48;100.00;118439.88;5056096;28;20047;-70
2022/12/19 04:00:17;;;;;;;25.95;11.65;;;;;;;-143.48;100.00;118439.88;5056615;28;20046;-70
2022/12/19 04:02:47;;;;;;;20.85;11.45;;;;;;;-143.48;100.00;118439.88;5038737;28;20021;-70
2022/12/19 04:05:18;;;;;;;17.98;9.05;;;;;;;-143.48;100.00;118439.88;5038756;28;20514;-70
2022/12/19 04:07:44;;;;;;;20.85;10.27;;;;;;;-143.48;100.00;118439.88;5056651;28;20033;-70
2022/12/19 04:10:14;;;;;;;20.65;10.60;;;;;;;-143.48;100.00;118439.88;5056479;28;20021;-70
2022/12/19 04:12:46;;;;;;;13.88;7.47;;;;;;;-143.48;100.00;118439.88;5056740;28;20029;-70
2022/12/19 04:15:11;;;;;;;21.58;10.75;;;;;;;-143.48;100.00;118439.88;5056390;28;20025;-71
2022/12/19 04:17:43;;;;;;;17.90;9.35;;;;;;;-143.48;100.00;118439.88;5056426;28;20020;-69
2022/12/19 04:20:15;;;;;;;16.85;8.95;;;;;;;-143.48;100.00;118439.88;5056298;28;20024;-70
2022/12/19 04:22:57;;;;;;;15.82;8.35;;;;;;;-143.48;100.00;118439.88;5055831;28;20724;-70
2022/12/19 04:25:34;;;;;;;15.27;8.17;;;;;;;-143.48;100.00;118439.88;5056170;28;20104;-70
2022/12/19 04:28:05;;;;;;;14.40;8.07;;;;;;;-143.48;100.00;118439.88;5056246;28;20488;-71
2022/12/19 04:30:31;;;;;;;18.55;9.15;;;;;;;-143.48;100.00;118439.88;5055988;28;20025;-70
2022/12/19 04:32:57;;;;;;;17.77;9.27;;;;;;;-143.48;100.00;118439.88;5055800;28;20484;-70
2022/12/19 04:35:22;;;;;;;15.77;8.52;;;;;;;-143.48;100.00;118439.88;5055659;28;20104;-69
2022/12/19 04:37:48;;;;;;;17.05;8.73;;;;;;;-143.48;100.00;118439.88;5055603;28;20044;-70
2022/12/19 04:40:13;;;;;;;18.73;10.07;;;;;;;-143.48;100.00;118439.88;5055613;28;20028;-69
2022/12/19 04:42:39;;;;;;;16.38;9.40;;;;;;;-143.48;100.00;118439.88;5055379;28;20032;-69
2022/12/19 04:45:04;;;;;;;18.40;9.73;;;;;;;-143.48;100.00;118439.88;5055354;28;20472;-69
2022/12/19 04:47:30;;;;;;;16.23;9.13;;;;;;;-143.48;100.00;118439.88;5037431;28;20031;-69
2022/12/19 04:49:55;;;;;;;18.58;8.90;;;;;;;-143.48;100.00;118439.88;5037373;28;20055;-69
2022/12/19 04:52:21;;;;;;;23.83;9.95;;;;;;;-143.48;100.00;118439.88;5055269;28;20028;-69
2022/12/19 04:54:46;;;;;;;16.70;9.02;;;;;;;-143.48;100.00;118439.88;5055137;28;20050;-70
2022/12/19 04:57:11;;;;;;;20.40;9.85;;;;;;;-143.48;100.00;118439.88;5055129;28;20036;-69
2022/12/19 04:59:36;;;;;;;16.67;10.23;;;;;;;-143.48;100.00;118439.88;5055272;28;20388;-69
2022/12/19 05:02:02;;;;;;;18.92;10.07;;;;;;;-143.48;100.00;118439.88;5055037;28;20419;-69
2022/12/19 05:04:27;;;;;;;18.60;9.70;;;;;;;-143.48;100.00;118439.88;5055132;28;20029;-69
2022/12/19 05:06:52;;;;;;;17.10;9.20;;;;;;;-143.48;100.00;118439.88;5054938;28;20444;-70
2022/12/19 05:09:18;;;;;;;16.90;9.90;;;;;;;-143.48;100.00;118439.88;5037074;28;20017;-70
2022/12/19 05:11:43;;;;;;;16.58;9.02;;;;;;;-143.48;100.00;118439.88;5054892;28;20040;-69
2022/12/19 05:14:09;;;;;;;15.90;9.40;;;;;;;-143.48;100.00;118439.88;5054535;28;20047;-69
2022/12/19 05:16:34;;;;;;;15.88;8.68;;;;;;;-143.48;100.00;118439.88;5054976;28;20036;-69
2022/12/19 05:19:00;;;;;;;14.82;9.00;;;;;;;-143.48;100.00;118439.88;5054741;28;20430;-69
2022/12/19 05:21:26;;;;;;;13.93;8.60;;;;;;;-143.48;100.00;118439.88;5036792;28;20053;-70
2022/12/19 05:23:51;;;;;;;14.60;7.90;;;;;;;-143.48;100.00;118439.88;5054744;28;20057;-69
2022/12/19 05:26:17;;;;;;;12.00;7.50;;;;;;;-143.48;100.00;118439.88;5054499;28;20070;-69
2022/12/19 05:28:42;;;;;;;14.15;8.32;;;;;;;-143.48;100.00;118439.88;5054697;28;20087;-69
2022/12/19 05:31:14;;;;;;;13.25;8.07;;;;;;;-143.48;100.00;118439.88;5054537;28;20103;-69
2022/12/19 05:33:40;;;;;;;15.68;9.13;;;;;;;-143.48;100.00;118439.88;5054458;28;20388;-69
2022/12/19 05:36:07;;;;;;;13.20;8.25;;;;;;;-143.48;100.00;118439.88;5035737;28;20025;-70
2022/12/19 05:38:33;;;;;;;14.23;8.73;;;;;;;-143.48;100.00;118439.88;5054329;28;20020;-70
2022/12/19 05:40:58;;;;;;;14.63;8.40;;;;;;;-143.48;100.00;118439.88;5054485;28;20024;-69
2022/12/19 05:43:24;;;;;;;12.82;8.23;;;;;;;-143.48;100.00;118439.88;5054331;28;20036;-69
2022/12/19 05:45:50;;;;;;;12.55;8.20;;;;;;;-143.48;100.00;118439.88;5054209;28;20053;-69
2022/12/19 05:48:15;;;;;;;13.80;8.25;;;;;;;-143.48;100.00;118439.88;5036318;28;20021;-69
2022/12/19 05:50:40;;;;;;;13.77;8.35;;;;;;;-143.48;100.00;118439.88;5036359;28;20017;-70
2022/12/19 05:53:06;;;;;;;14.02;8.60;;;;;;;-143.48;100.00;118439.88;5054072;28;20479;-69
2022/12/19 05:55:31;;;;;;;17.33;9.20;;;;;;;-143.48;100.00;118439.88;5054115;28;20031;-70
2022/12/19 05:57:56;;;;;;;12.57;8.25;;;;;;;-143.48;100.00;118439.88;5036034;28;20115;-69
2022/12/19 06:00:21;;;;;;;13.07;8.75;;;;;;;-143.48;100.00;118439.88;5053997;28;20029;-70
2022/12/19 06:02:47;;;;;;;14.05;8.93;;;;;;;-143.48;100.00;118439.88;5053780;28;20545;-69
2022/12/19 06:05:12;;;;;;;15.13;9.20;;;;;;;-143.48;100.00;118439.88;5053836;28;20112;-69
2022/12/19 06:07:38;;;;;;;14.65;9.30;;;;;;;-143.48;100.00;118439.88;5053686;28;20036;-70
2022/12/19 06:10:04;;;;;;;13.88;9.48;;;;;;;-143.48;100.00;118439.88;5053801;28;20028;-70
2022/12/19 06:12:29;;;;;;;13.68;8.77;;;;;;;-143.48;100.00;118439.88;5053832;28;20079;-70
2022/12/19 06:14:55;;;;;;;16.25;10.13;;;;;;;-143.48;100.00;118439.88;5053614;28;20020;-69
2022/12/19 06:17:20;;;;;;;15.65;8.90;;;;;;;-143.48;100.00;118439.88;5053753;28;20021;-69
2022/12/19 06:19:46;;;;;;;14.10;9.15;;;;;;;-143.48;100.00;118439.88;5053580;28;20025;-69
2022/12/19 06:22:11;;;;;;;13.10;8.95;;;;;;;-143.48;100.00;118439.88;5035613;28;20021;-69
2022/12/19 06:24:36;;;;;;;14.15;9.27;;;;;;;-143.48;100.00;118439.88;5053540;28;20048;-70
2022/12/19 06:27:02;;;;;;;13.38;8.93;;;;;;;-143.48;100.00;118439.88;5053440;28;20040;-70
2022/12/19 06:29:27;;;;;;;16.63;9.60;;;;;;;-143.48;100.00;118439.88;5053520;28;20388;-70
2022/12/19 06:31:53;;;;;;;14.00;8.82;;;;;;;-143.48;100.00;118439.88;5054101;28;20028;-69
2022/12/19 06:34:18;;;;;;;12.52;8.63;;;;;;;-143.48;100.00;118439.88;5036843;28;20052;-70
2022/12/19 06:36:44;;;;;;;13.23;8.82;;;;;;;-143.48;100.00;118439.88;5035620;28;20369;-69
2022/12/19 06:39:13;;;;;;;14.27;8.68;;;;;;;-143.48;100.00;118439.88;5053332;28;20052;-70
2022/12/19 06:44:22;;;;;;;12.23;8.63;;;;;;;-143.48;100.00;118439.88;5053510;28;20565;-70
2022/12/19 06:46:47;;;;;;;15.20;9.25;;;;;;;-143.48;100.00;118439.88;5052909;28;20021;-69
2022/12/19 06:49:12;;;;;;;15.35;9.15;;;;;;;-143.48;100.00;118439.88;5035288;28;20460;-70
2022/12/19 06:51:38;;;;;;;12.30;8.52;;;;;;;-143.48;100.00;118439.88;5053247;28;20025;-71
2022/12/19 06:54:03;;;;;;;12.10;8.70;;;;;;;-143.48;100.00;118439.88;5053323;28;20440;-70
2022/12/19 06:56:34;;;;;;;14.35;9.25;;;;;;;-143.48;100.00;118439.88;5053045;28;20071;-70
2022/12/19 06:58:59;;;;;;;14.68;8.40;;;;;;;-143.48;100.00;118439.88;5035355;28;20032;-70
2022/12/19 07:01:43;;;;;;;13.18;8.73;;;;;;;-143.48;100.00;118439.88;5052760;28;20391;-70
2022/12/19 07:04:12;;;;;;;13.10;8.75;;;;;;;-143.48;100.00;118439.88;5053076;28;20029;-70
2022/12/19 07:06:37;;;;;;;12.38;8.40;;;;;;;-143.48;100.00;118439.88;5052862;28;20053;-70
2022/12/19 07:09:04;;;;;;;15.68;8.63;;;;;;;-143.48;100.00;118439.88;5052978;28;20028;-70
2022/12/19 07:11:29;;;;;;;14.60;9.32;;;;;;;-143.48;100.00;118439.88;5052929;28;20028;-70
2022/12/19 07:13:54;;;;;;;14.60;9.88;;;;;;;-143.48;100.00;118439.88;5052824;28;20528;-69
2022/12/19 07:16:20;;;;;;;15.90;10.07;;;;;;;-143.48;100.00;118439.88;5053257;28;20465;-69
2022/12/19 07:18:46;;;;;;;13.93;9.73;;;;;;;-143.48;100.00;118439.88;5037055;28;20035;-69
2022/12/19 07:21:11;;;;;;;15.57;10.63;;;;;;;-143.48;100.00;118439.88;5055049;28;20048;-69
2022/12/19 07:23:38;;;;;;;16.75;11.00;;;;;;;-143.48;100.00;118439.88;5052630;28;20076;-69
2022/12/19 07:26:03;;;;;;;14.25;9.43;;;;;;;-143.48;100.00;118439.88;5052821;28;20029;-69
2022/12/19 07:28:28;;;;;;;15.40;10.13;;;;;;;-143.48;100.00;118439.88;5052805;28;20027;-70
2022/12/19 07:30:54;;;;;;;18.73;10.50;;;;;;;-143.48;100.00;118439.88;5052716;28;20024;-68
2022/12/19 07:33:19;;;;;;;15.38;10.27;;;;;;;-143.48;100.00;118439.88;5052936;28;20021;-69
2022/12/19 07:35:45;;;;;;;14.77;10.40;;;;;;;-143.48;100.00;118439.88;5051668;28;20484;-70
2022/12/19 07:38:10;;;;;;;16.00;10.05;;;;;;;-143.48;100.00;118439.88;5052747;28;20029;-69
2022/12/19 07:40:35;;;;;;;13.68;9.15;;;;;;;-143.48;100.00;118439.88;5035659;28;20503;-69
2022/12/19 07:43:02;;;;;;;13.43;9.23;;;;;;;-143.48;100.00;118439.88;5053015;28;20028;-70
2022/12/19 07:45:28;;;;;;;13.50;9.27;;;;;;;-143.48;100.00;118439.88;5052632;28;20054;-69
2022/12/19 07:47:54;;;;;;;14.30;9.30;;;;;;;-143.48;100.00;118439.88;5052618;28;20033;-69
2022/12/19 07:50:20;;;;;;;17.00;9.05;;;;;;;-143.48;100.00;118439.88;5052919;28;20028;-69
2022/12/19 07:52:45;;;;;;;14.15;9.10;;;;;;;-143.48;100.00;118439.88;5052642;28;20033;-70
2022/12/19 07:55:11;;;;;;;15.32;8.85;;;;;;;-143.48;100.00;118439.88;5052488;28;20021;-69
2022/12/19 07:57:39;;;;;;;15.20;8.90;;;;;;;-143.48;100.00;118439.88;5054141;28;20055;-70
2022/12/19 08:00:06;;;;;;;15.82;8.93;;;;;;;-143.48;100.00;118439.88;5039242;28;20167;-69
2022/12/19 08:02:31;;;;;;;17.80;8.90;;;;;;;-143.48;100.00;118439.88;5056524;28;20036;-70
2022/12/19 08:04:57;;;;;;;18.65;9.15;;;;;;;-143.48;100.00;118439.88;5057360;28;20024;-69
2022/12/19 08:07:28;;;;;;;13.32;8.43;;;;;;;-143.48;100.00;118439.88;5058037;28;20427;-69
2022/12/19 08:09:54;;;;;;;15.68;8.40;;;;;;;-143.48;100.00;118439.88;5059503;28;20036;-69
2022/12/19 08:12:20;;;;;;;13.55;8.48;;;;;;;-143.48;100.00;118439.88;5056034;28;20017;-70
2022/12/19 08:14:45;;;;;;;13.88;8.20;;;;;;;-143.48;100.00;118439.88;5055858;28;20017;-70
2022/12/19 08:17:11;;;;;;;10.85;7.40;;;;;;;-143.48;99.96;118439.88;5037798;28;20444;-70
2022/12/19 08:19:36;;;;;;;13.43;7.95;;;;;;;-143.48;99.87;118439.88;5055685;28;20056;-70
2022/12/19 08:22:01;;;;;;;14.55;7.30;;;;;;;-143.48;99.95;118439.88;5055643;28;20021;-68
2022/12/19 08:24:26;;;;;;;16.42;8.13;;;;;;;-143.48;100.00;118439.88;5037524;28;20053;-68
2022/12/19 08:26:52;;;;;;;15.02;8.30;;;;;;;-143.48;100.00;118439.88;5055552;28;20031;-68
2022/12/19 08:29:17;;;;;;;12.45;7.88;;;;;;;-143.48;100.00;118439.88;5039818;28;20116;-68
2022/12/19 08:31:42;;;;;;;15.48;8.05;;;;;;;-143.48;100.00;118439.88;5055671;28;20112;-69
2022/12/19 08:34:08;;;;;;;14.15;8.25;;;;;;;-143.48;100.00;118439.88;5055596;28;20025;-68
2022/12/19 08:36:33;;;;;;;11.15;7.63;;;;;;;-143.48;100.00;118439.88;5055507;28;20124;-68
2022/12/19 08:38:58;;;;;;;14.10;8.02;;;;;;;-143.48;100.00;118439.88;5055513;28;20099;-68
2022/12/19 08:41:24;;;;;;;14.77;8.48;;;;;;;-143.48;100.00;118439.88;5055181;28;20095;-70
2022/12/19 08:43:51;;;;;;;12.65;8.02;;;;;;;-143.48;100.00;118439.88;5055436;28;20480;-69
2022/12/19 08:46:18;;;;;;;15.02;8.45;;;;;;;-143.48;100.00;118439.88;5055185;28;20383;-69
2022/12/19 08:48:44;;;;;;;12.95;8.60;;;;;;;-143.48;100.00;118439.88;5054985;28;20074;-72
2022/12/19 08:51:11;;;;;;;15.32;8.23;;;;;;;-143.48;100.00;118439.88;5054456;28;20472;-69
2022/12/19 08:53:39;;;;;;;14.60;8.45;;;;;;;-143.48;100.00;118439.88;5036650;28;20025;-69
2022/12/19 08:56:10;;;;;;;14.63;8.40;;;;;;;-143.48;100.00;118439.88;5054335;28;20024;-69
2022/12/19 08:58:35;;;;;;;12.80;8.32;;;;;;;-143.48;100.00;118439.88;5054643;28;20025;-69
2022/12/19 09:01:04;;;;;;;12.95;8.20;;;;;;;-143.48;100.00;118439.88;5054594;28;20113;-69
2022/12/19 09:03:30;;;;;;;12.60;8.15;;;;;;;-143.48;100.00;118439.88;5036606;28;20069;-69
2022/12/19 09:05:56;;;;;;;15.98;8.05;;;;;;;-143.48;100.00;118439.88;5054862;28;20082;-69
2022/12/19 09:08:22;;;;;;;15.00;8.18;;;;;;;-143.48;100.00;118439.88;5054997;28;20472;-69
2022/12/19 09:10:47;;;;;;;12.10;8.02;;;;;;;-143.48;100.00;118439.88;5054929;28;20032;-69
2022/12/19 09:13:12;;;;;;;16.42;7.72;;;;;;;-143.48;100.00;118439.88;5054928;28;20032;-69
2022/12/19 09:15:38;;;;;;;16.55;8.30;;;;;;;-143.48;100.00;118439.88;5054822;28;20017;-69
2022/12/19 09:18:04;;;;;;;12.68;8.13;;;;;;;-143.48;100.00;118439.88;5054786;28;20082;-69
2022/12/19 09:20:29;;;;;;;13.52;7.57;;;;;;;-143.48;100.00;118439.88;5054987;28;20022;-69
2022/12/19 09:22:54;;;;;;;11.65;7.55;;;;;;;-143.48;100.00;118439.88;5054572;28;20051;-70
2022/12/19 09:25:20;;;;;;;13.45;7.93;;;;;;;-143.48;100.00;118439.88;5054584;28;20032;-69
2022/12/19 09:27:45;;;;;;;12.32;6.97;;;;;;;-143.48;100.00;118439.88;5054657;28;20112;-68
2022/12/19 09:30:11;;;;;;;11.75;7.40;;;;;;;-143.48;100.00;118439.88;5054375;28;20024;-69
2022/12/19 09:32:37;;;;;;;13.13;7.45;;;;;;;-143.48;100.00;118439.88;5036591;28;20167;-69
2022/12/19 09:35:03;;;;;;;11.95;7.18;;;;;;;-143.48;99.93;118439.88;5054400;28;20032;-69
2022/12/19 09:37:29;;;;;;;11.45;7.40;;;;;;;-143.48;100.00;118439.88;5054568;28;20024;-69
2022/12/19 09:39:54;;;;;;;11.77;6.45;;;;;;;-143.48;99.82;118439.88;5054402;28;20025;-69
2022/12/19 09:42:52;;;;;;;11.18;6.78;;;;;;;-143.48;99.48;118439.88;5036363;28;20025;-69
2022/12/19 09:45:44;;;;;;;11.48;6.55;;;;;;;-143.48;99.44;118439.88;5054302;28;20430;-69
2022/12/19 09:48:12;;;;;;;14.45;7.00;;;;;;;-143.48;99.38;118439.88;5035805;28;20045;-69
2022/12/19 09:50:53;;;;;;;10.85;6.60;;;;;;;-143.48;99.91;118439.88;5054130;28;20104;-69
2022/12/19 09:53:28;;;;;;;11.95;6.55;;;;;;;-143.48;99.83;118439.88;5054075;28;20036;-70
2022/12/19 09:55:57;;;;;;;11.95;6.82;;;;;;;-143.48;100.00;118439.88;5036350;28;20025;-69
2022/12/19 09:58:32;;;;;;;10.45;6.25;;;;;;;-143.48;99.73;118439.88;5036050;28;20025;-69
2022/12/19 10:01:04;;;;;;;10.32;6.20;;;;;;;-143.48;100.00;118439.88;5053876;28;20051;-69
2022/12/19 10:03:40;;;;;;;11.00;6.35;;;;;;;-143.48;99.69;118439.88;5053791;28;20021;-69
2022/12/19 10:06:11;;;;;;;12.95;7.95;;;;;;;-143.48;100.00;118439.88;5053831;28;20025;-70
2022/12/19 10:08:39;;;;;;;10.73;6.47;;;;;;;-143.48;99.63;118439.88;5053740;28;20021;-69
2022/12/19 10:11:13;;;;;;;10.07;6.70;;;;;;;-143.48;99.79;118439.88;5053843;28;20037;-70
2022/12/19 10:14:01;;;;;;;15.95;6.97;;;;;;;-143.48;99.28;118439.88;5053796;28;20035;-69
2022/12/19 10:16:50;;;;;;;14.80;6.90;;;;;;;-143.48;99.42;118439.88;5053807;28;20470;-69
2022/12/19 10:20:09;;;;;;;9.93;6.38;;;;;;;-143.48;99.66;118439.88;5053579;28;20028;-69
2022/12/19 10:22:36;;;;;;;9.40;6.63;;;;;;;-143.48;99.99;118439.88;5041314;28;20140;-69
2022/12/19 10:25:27;;;;;;;10.85;6.90;;;;;;;-143.48;99.67;118439.88;5053644;28;20116;-69
2022/12/19 10:28:19;;;;;;;12.70;6.85;;;;;;;-143.48;99.66;118439.88;5035432;28;20025;-69
2022/12/19 10:31:12;;;;;;;10.48;6.72;;;;;;;-143.48;99.38;118439.88;5053516;28;20039;-69
2022/12/19 10:34:00;;;;;;;9.90;6.03;;;;;;;-143.48;98.73;118439.88;5053327;28;20024;-69
2022/12/19 10:36:26;;;;;;;12.70;6.22;;;;;;;-143.48;98.20;118439.88;5053382;28;20032;-69
2022/12/19 10:39:02;;;;;;;13.38;7.00;;;;;;;-143.48;98.30;118439.88;5053303;28;20071;-69
2022/12/19 10:41:31;;;;;;;11.95;5.97;;;;;;;-143.48;97.86;118439.88;5053324;28;20438;-70
2022/12/19 10:44:05;;;;;;;11.95;6.60;;;;;;;-143.48;98.14;118439.88;5053271;28;20063;-70
2022/12/19 10:46:44;;;;;;;12.50;6.00;;;;;;;-143.48;97.21;118439.88;5035295;28;20029;-69
2022/12/19 10:49:20;;;;;;;13.65;6.13;;;;;;;-143.48;98.18;118439.88;5053352;28;20063;-69
2022/12/19 10:51:54;;;;;;;8.85;5.35;;;;;;;-143.48;97.52;118439.88;5053066;28;20029;-70
2022/12/19 10:54:22;;;;;;;9.77;5.28;;;;;;;-143.48;97.05;118439.88;5053278;28;20025;-71
2022/12/19 10:56:47;;;;;;;12.25;5.63;;;;;;;-143.48;97.41;118439.88;5053041;28;20017;-69
2022/12/19 10:59:19;;;;;;;13.23;5.97;;;;;;;-143.48;97.06;118439.88;5052967;28;20035;-70
2022/12/19 11:01:47;;;;;;;8.43;5.63;;;;;;;-143.48;97.20;118439.88;5052903;28;20029;-70
2022/12/19 11:04:16;;;;;;;9.82;5.57;;;;;;;-143.48;97.65;118439.88;5053072;28;20021;-70
2022/12/19 11:07:03;;;;;;;9.25;5.97;;;;;;;-143.48;97.51;118439.88;5052959;28;20070;-69
2022/12/19 11:09:38;;;;;;;10.63;5.70;;;;;;;-143.48;97.61;118439.88;5053095;28;20036;-69
2022/12/19 11:12:06;;;;;;;11.65;5.45;;;;;;;-143.48;97.43;118439.88;5052937;28;20060;-69